Flight Track Log - Related Links

Times and Time Zones

All times are in EDT time to prevent confusion due to time zone crossing. See the UCA3599 flight status page for this flight to view local times or setup timezone preferences in your user account.


Time Position Orientation Groundspeed Altitude Reporting Facility
EDT Latitude Longitude Course Direction KTS MPH feet Rate Location/Type
Wed 06:06:27 AM 42.1164 -75.9514 209° Southwest 190 219 3,700  Level New York Center
Wed 06:07:27 AM 42.0731 -75.9925 215° Southwest 190 219 4,700 1,150 Climbing New York Center
Wed 06:08:27 AM 42.0308 -76.0506 226° Southwest 201 231 6,000 1,300 Climbing New York Center
Wed 06:09:27 AM 41.9939 -76.0867 216° Southwest 214 246 7,300 1,000 Climbing New York Center
Wed 06:10:00 AM 41.9695 -76.0935 209° Southwest  Level Estimated
Wed 06:10:27 AM 41.9458 -76.1358 217° Southwest 207 238 8,000  Level New York Center
Wed 06:11:27 AM 41.8978 -76.1878 219° Southwest 221 254 8,300 800 Climbing New York Center
Wed 06:12:27 AM 41.8519 -76.2342 217° Southwest 216 249 9,600 1,150 Climbing New York Center
Wed 06:13:27 AM 41.8125 -76.2753 218° Southwest 210 242 10,600 1,050 Climbing New York Center
Wed 06:14:27 AM 41.7647 -76.3158 212° Southwest 210 242 11,700 1,150 Climbing New York Center
Wed 06:15:27 AM 41.7047 -76.3500 203° Southwest 210 242 12,900 1,150 Climbing New York Center
Wed 06:16:27 AM 41.6556 -76.3792 204° Southwest 210 242 14,000 1,050 Climbing New York Center
Wed 06:17:27 AM 41.6019 -76.4106 204° Southwest 210 242 15,000 1,000 Climbing New York Center
Wed 06:18:27 AM 41.5569 -76.4403 206° Southwest 205 236 16,000 500 Climbing New York Center
Wed 06:19:27 AM 41.4928 -76.4764 203° Southwest 222 255 16,000  Level New York Center
Wed 06:20:27 AM 41.4283 -76.5122 203° Southwest 245 282 16,000  Level New York Center
Wed 06:21:27 AM 41.3642 -76.5511 204° Southwest 256 295 16,000  Level New York Center
Wed 06:22:27 AM 41.3064 -76.5819 202° Southwest 261 300 16,000  Level New York Center
Wed 06:23:27 AM 41.2397 -76.6233 205° Southwest 261 300 16,000  Level New York Center
Wed 06:24:27 AM 41.1689 -76.6639 203° Southwest 261 300 16,000  Level New York Center
Wed 06:25:27 AM 41.1003 -76.7047 204° Southwest 261 300 16,000  Level New York Center
Wed 06:26:27 AM 41.0358 -76.7431 204° Southwest 261 300 16,000  Level New York Center
Wed 06:27:27 AM 40.9692 -76.7814 203° Southwest 261 300 16,000  Level New York Center
Wed 06:28:27 AM 40.9028 -76.8194 203° Southwest 261 300 16,000  Level New York Center
Wed 06:29:27 AM 40.8425 -76.8553 204° Southwest 261 300 16,000  Level New York Center
Wed 06:30:27 AM 40.7697 -76.8925 201° Southwest 261 300 16,000  Level New York Center
Wed 06:31:27 AM 40.7019 -76.9111 192° South 266 306 16,000  Level New York Center
Wed 06:32:27 AM 40.6256 -76.9372 195° South 266 306 16,000  Level New York Center
Wed 06:33:27 AM 40.5622 -76.9561 193° South 266 306 16,000  Level New York Center
Wed 06:34:27 AM 40.4839 -76.9792 193° South 266 306 16,000  Level New York Center
Wed 06:35:27 AM 40.4222 -77.0008 195° South 266 306 16,000  Level New York Center
Wed 06:36:27 AM 40.3419 -77.0236 192° South 266 306 16,000 -100 Level New York Center
Wed 06:37:27 AM 40.2803 -77.0453 195° South 266 306 15,800 -990 Descending New York Center
Wed 06:39:41 AM 40.1000 -77.1000 193° South 290 334 12,800 -1,350 Descending Potomac TRACON
Wed 06:40:47 AM 40.0167 -77.1333 197° South 282 325 11,300 -1,300 Descending Potomac TRACON
Wed 06:41:41 AM 39.9500 -77.1667 201° Southwest 276 318 10,200 -1,263 Descending Potomac TRACON
Wed 06:42:41 AM 39.8833 -77.2000 201° Southwest 270 311 8,900 -1,048 Descending Potomac TRACON
Wed 06:43:47 AM 39.8000 -77.2500 205° Southwest 264 304 8,000 -474 Descending Potomac TRACON
Wed 06:44:35 AM 39.7500 -77.2667 194° South 249 287 8,000 -556 Level Potomac TRACON
Wed 06:45:35 AM 39.6833 -77.3000 201° Southwest 269 310 7,000 -500 Descending Potomac TRACON
Wed 06:46:35 AM 39.6167 -77.3500 210° Southwest 257 296 7,000 -300 Level Potomac TRACON
Wed 06:47:35 AM 39.5500 -77.4000 210° Southwest 259 298 6,400 -895 Descending Potomac TRACON
Wed 06:48:29 AM 39.5000 -77.4167 194° South 266 306 5,300 -1,211 Descending Potomac TRACON
Wed 06:49:29 AM 39.4167 -77.4333 189° South 266 306 4,100 -684 Descending Potomac TRACON
Wed 06:50:23 AM 39.3500 -77.4333 180° South 254 292 4,000 -526 Descending Potomac TRACON
Wed 06:51:23 AM 39.2833 -77.4333 180° South 259 298 3,100 -526 Descending Potomac TRACON
Wed 06:52:17 AM 39.2333 -77.4333 180° South 250 288 3,000 -53 Descending Potomac TRACON
Wed 06:53:17 AM 39.1500 -77.4333 180° South 247 284 3,000 -100 Level Potomac TRACON
Wed 06:54:17 AM 39.0833 -77.4333 180° South 240 276 2,800 -650 Descending Potomac TRACON
Wed 06:55:17 AM 39.0333 -77.4333 180° South 206 237 1,700 -1,000 Descending Potomac TRACON
Wed 06:56:17 AM 38.9833 -77.4333 180° South 161 185 800 -900 Descending Potomac TRACON
Wed 06:58:00 AM 38.9474 -77.4599 180° South  Level Estimated

Login

Don't have an account? Register now (free) for customized features, flight alerts, and more!